createdAt,value
2019-04-19T04:39:34.168Z,12.62
2019-04-19T04:40:37.827Z,12.65
2019-04-19T04:41:34.419Z,12.79
2019-04-19T04:42:40.480Z,12.65
2019-04-19T04:43:44.668Z,12.64
2019-04-19T04:45:02.074Z,12.62
2019-04-19T04:46:04.834Z,12.58
2019-04-19T04:46:57.702Z,12.64
2019-04-19T04:47:50.387Z,12.64
2019-04-19T04:48:55.266Z,12.65
2019-04-19T04:49:55.114Z,12.68
2019-04-19T04:50:59.042Z,12.75
2019-04-19T04:51:49.520Z,12.67
2019-04-19T04:52:37.729Z,12.80
2019-04-19T04:53:34.117Z,12.82
2019-04-19T04:54:33.430Z,12.95
2019-04-19T04:55:36.092Z,12.80
2019-04-19T04:56:45.762Z,12.83
2019-04-19T04:57:44.942Z,12.85
2019-04-19T04:58:38.541Z,12.75
2019-04-19T04:59:35.022Z,12.76
2019-04-19T05:00:41.040Z,12.79
2019-04-19T05:01:45.261Z,12.80
2019-04-19T05:02:45.122Z,12.78
2019-04-19T05:03:51.173Z,12.80
2019-04-19T05:04:46.254Z,12.86
2019-04-19T05:05:50.027Z,12.83
2019-04-19T05:06:55.181Z,12.93
2019-04-19T05:07:52.956Z,12.93
2019-04-19T05:08:50.333Z,13.04
2019-04-19T05:10:50.449Z,12.97
2019-04-19T05:11:59.076Z,12.83
2019-04-19T05:13:18.665Z,12.93
2019-04-19T05:13:51.408Z,12.95
2019-04-19T05:14:49.169Z,13.00
2019-04-19T05:15:52.903Z,12.95
2019-04-19T05:17:00.141Z,12.91
2019-04-19T05:17:58.305Z,12.86
2019-04-19T05:18:52.719Z,12.90
2019-04-19T05:19:56.396Z,12.83
2019-04-19T05:20:48.089Z,13.01
2019-04-19T05:21:44.580Z,12.97
2019-04-19T05:22:55.453Z,13.00
2019-04-19T05:23:56.851Z,12.95
2019-04-19T05:24:56.435Z,12.91
2019-04-19T05:25:51.982Z,13.05
2019-04-19T05:27:04.640Z,13.20
2019-04-19T05:27:52.288Z,13.16
2019-04-19T05:28:48.901Z,13.19
2019-04-19T05:29:40.938Z,13.22
2019-04-19T05:30:41.129Z,13.30
2019-04-19T05:31:39.663Z,13.39
2019-04-19T05:32:35.837Z,13.44
2019-04-19T05:33:47.227Z,13.41
2019-04-19T05:34:53.682Z,13.47
2019-04-19T05:35:53.863Z,13.39
2019-04-19T05:36:50.142Z,13.49
2019-04-19T05:37:54.064Z,13.68
2019-04-19T05:38:57.345Z,13.68
2019-04-19T05:39:54.329Z,13.86
2019-04-19T05:40:48.943Z,13.87
2019-04-19T05:41:51.702Z,13.87
2019-04-19T05:42:49.140Z,13.81
2019-04-19T05:44:04.638Z,13.81
2019-04-19T05:45:03.255Z,13.79
2019-04-19T05:45:57.949Z,13.86
2019-04-19T05:46:53.535Z,13.96
2019-04-19T05:47:43.903Z,13.97
2019-04-19T05:48:42.090Z,13.95
2019-04-19T05:49:52.439Z,13.95
2019-04-19T05:50:57.556Z,13.92
2019-04-19T05:51:53.998Z,14.04
2019-04-19T05:52:47.407Z,14.05
2019-04-19T05:53:44.215Z,14.08
2019-04-19T05:54:32.864Z,14.12
2019-04-19T05:55:45.634Z,14.12
2019-04-19T05:58:55.886Z,14.36
2019-04-19T05:59:49.910Z,14.36
2019-04-19T06:01:59.325Z,14.47
2019-04-19T06:03:48.476Z,14.36
2019-04-19T06:05:58.341Z,14.33
2019-04-19T06:06:52.817Z,14.32
2019-04-19T06:07:47.707Z,14.43
2019-04-19T06:08:34.845Z,14.43
2019-04-19T06:10:36.967Z,14.50
2019-04-19T06:11:35.739Z,14.51
2019-04-19T06:12:34.428Z,14.48
2019-04-19T06:13:32.005Z,14.51
2019-04-19T06:14:56.792Z,14.58
2019-04-19T06:15:54.354Z,14.50
2019-04-19T06:16:46.630Z,14.68
2019-04-19T06:17:50.853Z,14.62
2019-04-19T06:18:43.259Z,14.66
2019-04-19T06:19:46.995Z,14.72
2019-04-19T06:20:50.113Z,14.68
2019-04-19T06:21:46.314Z,14.70
2019-04-19T06:22:51.538Z,14.77
2019-04-19T06:23:53.604Z,14.65
2019-04-19T06:26:20.114Z,14.77
2019-04-19T06:30:03.641Z,14.89
2019-04-19T06:31:58.362Z,14.84
2019-04-19T06:34:44.300Z,14.94
2019-04-19T06:35:40.661Z,14.88
2019-04-19T06:37:34.173Z,14.89
2019-04-19T06:38:35.452Z,15.03
2019-04-19T06:39:31.690Z,15.07
2019-04-19T06:40:34.651Z,15.00
2019-04-19T06:41:37.796Z,15.06
2019-04-19T06:42:41.312Z,15.02
2019-04-19T06:44:57.250Z,15.15
2019-04-19T06:45:49.179Z,15.25
2019-04-19T06:46:54.819Z,15.17
2019-04-19T06:48:51.008Z,15.22
2019-04-19T06:49:40.689Z,15.28
2019-04-19T06:50:42.968Z,15.24
2019-04-19T06:51:48.493Z,15.33
2019-04-19T06:52:41.191Z,15.28
2019-04-19T06:53:46.177Z,15.29
2019-04-19T06:54:42.903Z,15.33
2019-04-19T06:55:47.233Z,15.40
2019-04-19T06:56:42.205Z,15.46
2019-04-19T06:57:51.482Z,15.55
2019-04-19T06:58:50.273Z,15.55
2019-04-19T06:59:54.963Z,15.52
2019-04-19T07:00:54.532Z,15.58
2019-04-19T07:01:48.724Z,15.59
2019-04-19T07:02:39.803Z,15.61
2019-04-19T07:03:40.634Z,15.70
2019-04-19T07:04:52.218Z,15.75
2019-04-19T07:05:50.986Z,15.68
2019-04-19T07:06:58.435Z,15.86
2019-04-19T07:08:04.472Z,15.88
2019-04-19T07:10:08.108Z,15.94
2019-04-19T07:11:01.351Z,16.09
2019-04-19T07:12:02.213Z,16.00
2019-04-19T07:12:55.312Z,16.12
2019-04-19T07:13:51.903Z,16.13
2019-04-19T07:14:57.033Z,16.09
2019-04-19T07:19:57.448Z,16.26
2019-04-19T07:22:46.448Z,16.41
2019-04-19T07:23:49.901Z,16.46
2019-04-19T07:24:50.788Z,16.35
2019-04-19T07:25:47.750Z,16.50
2019-04-19T07:26:47.065Z,16.53
2019-04-19T07:27:40.431Z,16.57
2019-04-19T07:28:32.048Z,16.65
2019-04-19T07:29:28.396Z,16.60
2019-04-19T07:30:28.789Z,16.65
2019-04-19T07:31:28.138Z,16.71
2019-04-19T07:32:36.161Z,16.87
2019-04-19T07:33:41.485Z,16.89
2019-04-19T07:34:45.310Z,16.89
2019-04-19T07:35:52.790Z,16.96
2019-04-19T07:36:44.440Z,16.93
2019-04-19T07:37:39.757Z,16.93
2019-04-19T07:38:46.168Z,16.97
2019-04-19T07:39:55.359Z,17.04
2019-04-19T07:40:48.945Z,17.08
2019-04-19T07:41:49.443Z,17.08
2019-04-19T07:42:45.634Z,17.22
2019-04-19T07:43:43.571Z,17.23
2019-04-19T07:44:37.614Z,17.26
2019-04-19T07:45:39.775Z,17.38
2019-04-19T07:46:45.506Z,17.31
2019-04-19T07:47:39.368Z,17.29
2019-04-19T07:48:29.133Z,17.31
2019-04-19T07:49:29.311Z,17.42
2019-04-19T07:50:39.681Z,17.48
2019-04-19T07:51:33.530Z,17.59
2019-04-19T07:52:40.449Z,17.54
2019-04-19T07:53:32.029Z,17.71
2019-04-19T07:54:30.755Z,17.76
2019-04-19T07:55:33.427Z,17.82
2019-04-19T07:56:39.064Z,17.87
2019-04-19T07:58:06.999Z,17.85
2019-04-19T07:58:52.460Z,17.83
2019-04-19T08:02:01.457Z,17.86
2019-04-19T08:02:54.867Z,17.97
2019-04-19T08:04:12.033Z,18.01
2019-04-19T08:05:04.663Z,18.01
2019-04-19T08:07:01.511Z,18.04
2019-04-19T08:08:57.074Z,18.20
2019-04-19T08:11:02.310Z,18.05
2019-04-19T08:12:05.255Z,18.16
2019-04-19T08:12:53.800Z,18.19
2019-04-19T08:13:58.051Z,18.22
2019-04-19T08:17:29.131Z,18.59
2019-04-19T08:17:51.827Z,18.66
2019-04-19T08:27:33.847Z,22.28
2019-04-19T08:28:33.401Z,23.03
2019-04-19T08:29:35.378Z,23.34
2019-04-19T08:30:34.823Z,22.54
2019-04-19T08:31:27.354Z,22.96
2019-04-19T08:32:26.424Z,23.39
2019-04-19T08:33:27.554Z,23.05
2019-04-19T08:34:28.274Z,23.66
2019-04-19T08:35:27.573Z,22.68
2019-04-19T08:36:33.094Z,22.57
2019-04-19T08:37:32.633Z,22.17
2019-04-19T08:38:29.562Z,21.99
2019-04-19T08:39:52.750Z,22.73
2019-04-19T08:41:21.502Z,23.69
2019-04-19T08:42:30.844Z,23.69
2019-04-19T08:43:25.504Z,23.28
2019-04-19T08:44:21.676Z,22.73
2019-04-19T08:45:15.205Z,22.66
2019-04-19T08:46:11.345Z,22.98
2019-04-19T08:47:21.652Z,23.50
2019-04-19T08:48:16.947Z,23.48
2019-04-19T08:49:13.053Z,24.48
2019-04-19T08:50:12.646Z,23.99
2019-04-19T08:51:10.588Z,24.03
2019-04-19T08:52:16.050Z,24.01
2019-04-19T08:53:27.130Z,24.48
2019-04-19T08:54:31.843Z,24.26
2019-04-19T08:55:33.337Z,24.47
2019-04-19T08:56:23.095Z,24.50
2019-04-19T08:57:15.660Z,24.21
2019-04-19T08:58:29.723Z,24.58
2019-04-19T08:59:34.933Z,25.41
2019-04-19T09:00:41.032Z,25.41
2019-04-19T09:01:33.062Z,24.95
2019-04-19T09:02:28.639Z,25.10
2019-04-19T09:03:37.457Z,25.06
2019-04-19T09:04:33.232Z,24.81
2019-04-19T09:05:28.533Z,25.36
2019-04-19T09:07:08.361Z,26.22
2019-04-19T09:08:34.726Z,26.19
2019-04-19T09:09:31.205Z,26.25
2019-04-19T09:10:36.908Z,25.69
2019-04-19T09:11:24.793Z,25.33
2019-04-19T09:12:27.647Z,24.54
2019-04-19T09:13:35.345Z,24.58
2019-04-19T09:14:27.605Z,24.77
2019-04-19T09:15:24.032Z,25.25
2019-04-19T09:16:26.503Z,25.83
2019-04-19T09:17:43.399Z,26.06
2019-04-19T09:18:44.180Z,25.60
2019-04-19T09:19:44.512Z,25.98
2019-04-19T09:20:30.353Z,26.60
2019-04-19T09:21:27.467Z,27.08
2019-04-19T09:22:30.663Z,27.14
2019-04-19T09:23:26.019Z,26.10
2019-04-19T09:24:16.939Z,25.72
2019-04-19T09:25:24.527Z,25.58
2019-04-19T09:26:30.746Z,25.14
2019-04-19T09:27:39.032Z,25.46
2019-04-19T09:28:41.957Z,25.43
2019-04-19T09:29:35.494Z,25.60
2019-04-19T09:30:27.731Z,25.73
2019-04-19T09:31:26.653Z,25.87
2019-04-19T09:32:18.637Z,25.87
2019-04-19T09:33:20.295Z,25.90
2019-04-19T09:34:16.281Z,26.18
2019-04-19T09:35:12.771Z,25.78
2019-04-19T09:36:14.245Z,25.88
2019-04-19T09:37:21.201Z,25.95
2019-04-19T09:38:21.690Z,25.91
2019-04-19T09:39:29.261Z,25.47
2019-04-19T09:40:16.115Z,26.03
2019-04-19T09:41:20.584Z,26.71
2019-04-19T09:42:21.709Z,26.60
2019-04-19T09:43:24.049Z,26.68
2019-04-19T09:44:19.512Z,26.53
2019-04-19T09:45:12.500Z,26.21
2019-04-19T09:46:12.398Z,25.87
2019-04-19T09:47:12.137Z,25.23
2019-04-19T09:48:31.626Z,25.54
2019-04-19T09:49:23.193Z,26.33
2019-04-19T09:50:29.736Z,25.80
2019-04-19T09:51:27.912Z,25.77
2019-04-19T09:52:39.328Z,25.60
2019-04-19T09:53:38.713Z,25.28
2019-04-19T09:54:32.579Z,25.60
2019-04-19T09:55:33.209Z,25.44
2019-04-19T09:56:27.713Z,25.46
2019-04-19T09:57:33.453Z,25.38
2019-04-19T09:58:34.341Z,24.86
2019-04-19T09:59:21.357Z,24.66
2019-04-19T10:00:17.467Z,25.23
2019-04-19T10:01:12.565Z,25.46
2019-04-19T10:02:19.872Z,25.58
2019-04-19T10:03:24.520Z,25.73
2019-04-19T10:04:12.613Z,25.73
2019-04-19T10:05:12.583Z,26.21
2019-04-19T10:06:12.909Z,26.62
2019-04-19T10:07:11.680Z,26.65
2019-04-19T10:08:11.686Z,26.15
2019-04-19T10:09:16.354Z,26.60
2019-04-19T10:10:14.439Z,25.91
2019-04-19T10:11:12.608Z,26.83
2019-04-19T10:12:11.743Z,26.80
2019-04-19T10:13:11.975Z,26.15
2019-04-19T10:14:13.273Z,26.40
2019-04-19T10:15:11.887Z,27.17
2019-04-19T10:16:12.465Z,26.13
2019-04-19T10:17:12.665Z,25.60
2019-04-19T10:18:12.539Z,26.00
2019-04-19T10:19:13.126Z,25.23
2019-04-19T10:20:12.881Z,25.43
2019-04-19T10:21:19.052Z,25.33
2019-04-19T10:22:12.364Z,25.35
2019-04-19T10:23:13.233Z,24.85
2019-04-19T10:24:14.837Z,24.96
2019-04-19T10:25:11.928Z,25.44
2019-04-19T10:26:13.865Z,26.02
2019-04-19T10:27:12.790Z,26.95
2019-04-19T10:28:12.002Z,26.90
2019-04-19T10:29:19.758Z,26.21
2019-04-19T10:30:12.681Z,26.26
2019-04-19T10:31:12.011Z,25.68
2019-04-19T10:32:12.647Z,24.93
2019-04-19T10:33:12.039Z,24.93
2019-04-19T10:34:12.301Z,25.13
2019-04-19T10:35:13.401Z,25.69
2019-04-19T10:36:12.734Z,26.22
2019-04-19T10:37:13.315Z,26.37
2019-04-19T10:38:12.106Z,25.88
2019-04-19T10:39:12.118Z,25.88
2019-04-19T10:40:13.242Z,25.46
2019-04-19T10:41:13.555Z,25.13
2019-04-19T10:42:12.360Z,25.08
2019-04-19T10:43:12.170Z,24.77
2019-04-19T10:44:16.561Z,24.74
2019-04-19T10:45:12.375Z,24.40
2019-04-19T10:46:13.116Z,24.42
2019-04-19T10:47:12.563Z,24.57
2019-04-19T10:48:12.230Z,24.86
2019-04-19T10:49:17.438Z,25.10
2019-04-19T10:50:26.222Z,24.85
2019-04-19T10:51:12.306Z,24.70
2019-04-19T10:52:13.096Z,25.01
2019-04-19T10:53:12.363Z,24.42
2019-04-19T10:54:12.733Z,24.47
2019-04-19T10:55:12.310Z,24.33
2019-04-19T10:56:12.319Z,24.81
2019-04-19T10:57:12.505Z,25.13
2019-04-19T10:58:12.340Z,25.22
2019-04-19T10:59:12.350Z,25.46
2019-04-19T11:00:13.327Z,25.63
2019-04-19T11:01:13.453Z,25.69
2019-04-19T11:02:13.726Z,24.98
2019-04-19T11:03:12.810Z,24.42
2019-04-19T11:04:13.016Z,24.11
2019-04-19T11:05:12.408Z,24.21
2019-04-19T11:06:12.571Z,24.01
2019-04-19T11:07:13.676Z,24.33
2019-04-19T11:08:12.714Z,24.11
2019-04-19T11:09:12.448Z,24.18
2019-04-19T11:10:13.577Z,24.20
2019-04-19T11:11:13.757Z,24.36
2019-04-19T11:12:13.440Z,24.10
2019-04-19T11:13:12.843Z,24.03
2019-04-19T11:14:12.496Z,23.84
2019-04-19T11:15:12.937Z,23.80
2019-04-19T11:16:12.511Z,23.68
2019-04-19T11:17:13.715Z,23.76
2019-04-19T11:18:13.860Z,23.78
2019-04-19T11:19:19.275Z,24.06
2019-04-19T11:20:22.854Z,24.14
2019-04-19T11:21:13.399Z,24.24
2019-04-19T11:22:13.848Z,24.38
2019-04-19T11:23:13.535Z,24.29
2019-04-19T11:24:13.697Z,24.18
2019-04-19T11:25:12.581Z,23.83
2019-04-19T11:26:12.682Z,24.02
2019-04-19T11:27:13.203Z,24.17
2019-04-19T11:28:13.352Z,24.45
2019-04-19T11:29:13.460Z,24.43
2019-04-19T11:30:15.302Z,24.45
2019-04-19T11:31:17.637Z,24.38
2019-04-19T11:32:12.628Z,24.40
2019-04-19T11:33:12.809Z,24.30
2019-04-19T11:34:13.160Z,24.16
2019-04-19T11:35:13.728Z,24.01
2019-04-19T11:36:13.281Z,23.88
2019-04-19T11:37:14.118Z,23.80
2019-04-19T11:38:13.294Z,23.88
2019-04-19T11:39:12.748Z,23.77
2019-04-19T11:40:13.203Z,23.99
2019-04-19T11:41:13.327Z,24.06
2019-04-19T11:42:12.936Z,24.17
2019-04-19T11:43:13.470Z,24.10
2019-04-19T11:44:19.085Z,24.06
2019-04-19T11:45:12.715Z,24.20
2019-04-19T11:46:13.674Z,23.84
2019-04-19T11:47:13.266Z,23.74
2019-04-19T11:48:12.987Z,23.69
2019-04-19T11:49:23.797Z,23.71
2019-04-19T11:50:13.812Z,23.58
2019-04-19T11:51:13.911Z,23.63
2019-04-19T11:52:13.854Z,23.73
2019-04-19T11:53:12.757Z,23.91
2019-04-19T11:54:12.762Z,23.92
2019-04-19T11:55:12.806Z,24.03
2019-04-19T11:56:12.772Z,24.01
2019-04-19T11:57:12.778Z,24.01
2019-04-19T11:58:12.782Z,23.86
2019-04-19T11:59:12.787Z,23.81
2019-04-19T12:00:13.615Z,23.84
2019-04-19T12:01:14.065Z,24.03
2019-04-19T12:02:13.351Z,24.01
2019-04-19T12:03:13.912Z,23.86
2019-04-19T12:04:12.833Z,23.80
2019-04-19T12:05:19.510Z,23.91
2019-04-19T12:06:14.196Z,23.93
2019-04-19T12:07:12.834Z,23.98
2019-04-19T12:08:12.837Z,24.20
2019-04-19T12:09:12.842Z,24.08
2019-04-19T12:10:12.847Z,24.11
2019-04-19T12:11:12.850Z,24.01
2019-04-19T12:12:12.942Z,24.03
2019-04-19T12:13:13.038Z,24.08
2019-04-19T12:14:14.137Z,24.26
2019-04-19T12:15:13.837Z,24.23
2019-04-19T12:16:13.016Z,24.23
2019-04-19T12:17:13.281Z,24.23
2019-04-19T12:18:12.886Z,24.24
2019-04-19T12:19:13.966Z,24.30
2019-04-19T12:20:13.170Z,24.33
2019-04-19T12:21:13.497Z,24.10
2019-04-19T12:22:13.041Z,24.11
2019-04-19T12:23:13.791Z,24.18
2019-04-19T12:24:12.929Z,24.30
2019-04-19T12:25:12.922Z,24.29
2019-04-19T12:26:13.750Z,24.17
2019-04-19T12:27:13.801Z,24.11
2019-04-19T12:28:12.936Z,24.29
2019-04-19T12:29:25.493Z,24.43
2019-04-19T12:30:13.582Z,24.42
2019-04-19T12:31:13.638Z,24.61
2019-04-19T12:32:12.955Z,24.60
2019-04-19T12:33:13.275Z,24.65
2019-04-19T12:34:14.471Z,24.55
2019-04-19T12:35:13.054Z,24.50
2019-04-19T12:36:12.975Z,24.53
2019-04-19T12:37:13.341Z,24.54
2019-04-19T12:38:14.310Z,24.45
2019-04-19T12:39:12.995Z,24.38
2019-04-19T12:40:12.995Z,24.21
2019-04-19T12:41:14.210Z,24.17
2019-04-19T12:42:13.507Z,24.05
2019-04-19T12:43:13.905Z,24.10
2019-04-19T12:44:13.261Z,24.20
2019-04-19T12:45:13.592Z,23.95
2019-04-19T12:46:13.044Z,24.01
2019-04-19T12:47:13.121Z,23.92
2019-04-19T12:48:13.963Z,23.84
2019-04-19T12:49:14.298Z,24.08
2019-04-19T12:50:14.321Z,24.14
2019-04-19T12:51:14.140Z,24.08
2019-04-19T12:52:13.056Z,24.05
2019-04-19T12:53:13.058Z,24.05
2019-04-19T12:54:14.068Z,24.01
2019-04-19T12:55:14.317Z,24.24
2019-04-19T12:56:13.949Z,24.38
2019-04-19T12:57:14.043Z,24.53
2019-04-19T12:58:14.232Z,24.53
2019-04-19T12:59:13.860Z,24.60
2019-04-19T13:00:14.193Z,24.48
2019-04-19T13:01:14.116Z,24.51
2019-04-19T13:02:13.759Z,24.43
2019-04-19T13:03:13.903Z,24.38
2019-04-19T13:04:13.136Z,24.55
2019-04-19T13:05:14.132Z,24.61
2019-04-19T13:06:13.419Z,24.53
2019-04-19T13:07:13.174Z,24.38
2019-04-19T13:08:13.132Z,24.24
2019-04-19T13:09:13.135Z,24.40
2019-04-19T13:10:13.211Z,24.48
2019-04-19T13:11:13.144Z,24.53
2019-04-19T13:12:13.158Z,24.66
2019-04-19T13:13:14.023Z,24.81
2019-04-19T13:14:13.159Z,24.81
2019-04-19T13:15:13.693Z,24.84
2019-04-19T13:16:14.399Z,24.55
2019-04-19T13:17:13.173Z,24.60
2019-04-19T13:18:14.211Z,24.73
2019-04-19T13:19:14.131Z,24.84
2019-04-19T13:20:20.549Z,24.81
2019-04-19T13:21:13.846Z,24.69
2019-04-19T13:22:14.448Z,24.65
2019-04-19T13:23:14.508Z,24.63
2019-04-19T13:24:14.119Z,24.63
2019-04-19T13:25:15.141Z,24.74
2019-04-19T13:26:13.548Z,24.78
2019-04-19T13:27:13.220Z,24.84
2019-04-19T13:28:13.360Z,25.11
2019-04-19T13:29:13.429Z,25.10
2019-04-19T13:30:22.535Z,24.92
2019-04-19T13:31:14.054Z,24.78
2019-04-19T13:32:13.537Z,24.80
2019-04-19T13:33:14.367Z,24.88
2019-04-19T13:34:13.457Z,24.70
2019-04-19T13:35:13.262Z,24.74
2019-04-19T13:36:13.302Z,24.81
2019-04-19T13:37:13.378Z,24.92
2019-04-19T13:38:13.277Z,25.10
2019-04-19T13:39:13.312Z,24.95
2019-04-19T13:40:14.374Z,24.88
2019-04-19T13:41:14.496Z,24.86
2019-04-19T13:42:13.325Z,24.89
2019-04-19T13:43:13.312Z,24.84
2019-04-19T13:44:14.600Z,24.84
2019-04-19T13:45:19.762Z,24.96
2019-04-19T13:46:13.315Z,25.06
2019-04-19T13:47:13.321Z,25.08
2019-04-19T13:48:14.479Z,25.17
2019-04-19T13:49:14.605Z,25.14
2019-04-19T13:50:22.034Z,25.16
2019-04-19T13:51:14.317Z,25.07
2019-04-19T13:52:14.480Z,25.11
2019-04-19T13:53:13.352Z,25.22
2019-04-19T13:54:14.543Z,25.17
2019-04-19T13:55:14.720Z,25.11
2019-04-19T13:56:13.367Z,25.18
2019-04-19T13:57:13.450Z,24.93
2019-04-19T13:58:13.771Z,25.01
2019-04-19T13:59:14.241Z,24.96
2019-04-19T14:00:13.486Z,25.13
2019-04-19T14:01:14.350Z,25.14
2019-04-19T14:02:14.525Z,25.26
2019-04-19T14:03:13.769Z,25.23
2019-04-19T14:04:13.559Z,25.38
2019-04-19T14:05:13.583Z,25.31
2019-04-19T14:06:14.665Z,25.25
2019-04-19T14:07:13.424Z,25.29
2019-04-19T14:08:13.433Z,25.22
2019-04-19T14:09:13.463Z,25.25
2019-04-19T14:10:13.442Z,25.33
2019-04-19T14:11:13.447Z,25.51
2019-04-19T14:12:13.495Z,25.47
2019-04-19T14:13:14.788Z,25.68
2019-04-19T14:14:14.117Z,25.66
2019-04-19T14:15:13.469Z,25.40
2019-04-19T14:16:14.536Z,25.36
2019-04-19T14:17:13.762Z,25.44
2019-04-19T14:18:13.489Z,25.44
2019-04-19T14:19:13.535Z,25.54
2019-04-19T14:20:25.583Z,25.46
2019-04-19T14:21:14.798Z,25.04
2019-04-19T14:22:13.554Z,24.98
2019-04-19T14:23:13.512Z,24.85
2019-04-19T14:24:13.614Z,25.06
2019-04-19T14:25:13.624Z,25.23
2019-04-19T14:26:13.530Z,25.07
2019-04-19T14:27:13.534Z,24.93
2019-04-19T14:28:13.668Z,24.96
2019-04-19T14:29:13.547Z,24.86
2019-04-19T14:30:13.553Z,25.01
2019-04-19T14:31:14.449Z,25.13
2019-04-19T14:32:13.629Z,25.10
2019-04-19T14:33:14.771Z,25.16
2019-04-19T14:34:13.573Z,25.26
2019-04-19T14:35:14.131Z,25.41
2019-04-19T14:36:13.795Z,25.38
2019-04-19T14:37:14.506Z,25.44
2019-04-19T14:38:13.940Z,25.35
2019-04-19T14:39:13.606Z,25.38
2019-04-19T14:40:13.607Z,25.46
2019-04-19T14:41:13.636Z,25.47
2019-04-19T14:42:13.818Z,25.60
2019-04-19T14:43:14.523Z,25.77
2019-04-19T14:44:13.630Z,25.73
2019-04-19T14:45:14.257Z,25.66
2019-04-19T14:46:14.415Z,25.46
2019-04-19T14:47:14.798Z,25.35
2019-04-19T14:48:16.663Z,25.31
2019-04-19T14:49:13.660Z,25.13
2019-04-19T14:50:14.750Z,25.11
2019-04-19T14:51:19.610Z,24.95
2019-04-19T14:52:14.037Z,24.93
2019-04-19T14:53:14.279Z,25.08
2019-04-19T14:54:14.773Z,25.38
2019-04-19T14:55:13.783Z,25.47
2019-04-19T14:56:14.961Z,25.35
2019-04-19T14:57:13.708Z,25.25
2019-04-19T14:58:13.714Z,25.13
2019-04-19T14:59:13.782Z,25.07
2019-04-19T15:00:14.786Z,24.88
2019-04-19T15:01:14.980Z,24.91
2019-04-19T15:02:15.031Z,25.03
2019-04-19T15:03:14.676Z,25.16
2019-04-19T15:04:14.907Z,25.43
2019-04-19T15:05:13.811Z,25.31
2019-04-19T15:06:13.757Z,25.32
2019-04-19T15:07:14.511Z,25.29
2019-04-19T15:08:14.675Z,25.43
2019-04-19T15:09:13.775Z,25.40
2019-04-19T15:10:13.782Z,25.58
2019-04-19T15:11:13.819Z,25.46
2019-04-19T15:12:13.791Z,25.46
2019-04-19T15:13:14.679Z,25.48
2019-04-19T15:14:14.470Z,25.13
2019-04-19T15:15:14.589Z,25.08
2019-04-19T15:16:14.999Z,25.03
2019-04-19T15:17:13.824Z,24.98
2019-04-19T15:18:13.834Z,24.86
2019-04-19T15:19:14.484Z,24.73
2019-04-19T15:20:13.986Z,24.77
2019-04-19T15:21:16.965Z,24.74
2019-04-19T15:22:14.527Z,24.95
2019-04-19T15:23:14.242Z,25.10
2019-04-19T15:24:14.724Z,25.23
2019-04-19T15:25:14.920Z,25.40
2019-04-19T15:26:13.874Z,25.47
2019-04-19T15:27:14.749Z,25.41
2019-04-19T15:28:14.978Z,25.28
2019-04-19T15:29:13.890Z,25.33
2019-04-19T15:30:14.884Z,25.21
2019-04-19T15:31:14.302Z,24.84
2019-04-19T15:32:14.661Z,24.91
2019-04-19T15:33:14.312Z,24.76
2019-04-19T15:34:13.941Z,24.85
2019-04-19T15:35:13.929Z,24.84
2019-04-19T15:36:13.930Z,24.91
2019-04-19T15:37:13.938Z,24.86
2019-04-19T15:38:14.036Z,24.77
2019-04-19T15:39:13.950Z,24.85
2019-04-19T15:40:14.051Z,24.86
2019-04-19T15:41:14.299Z,24.99
2019-04-19T15:42:14.089Z,24.86
2019-04-19T15:43:14.948Z,24.80
2019-04-19T15:44:14.761Z,24.80
2019-04-19T15:45:14.352Z,24.76
2019-04-19T15:46:13.990Z,24.81
2019-04-19T15:47:14.726Z,24.77
2019-04-19T15:48:26.226Z,24.89
2019-04-19T15:49:14.007Z,24.77
2019-04-19T15:50:14.012Z,24.74
2019-04-19T15:51:22.034Z,24.73
2019-04-19T15:52:14.322Z,24.63
2019-04-19T15:53:14.029Z,24.69
2019-04-19T15:54:14.235Z,24.63
2019-04-19T15:55:14.298Z,24.80
2019-04-19T15:56:14.555Z,24.91
2019-04-19T15:57:14.276Z,24.93
2019-04-19T15:58:14.703Z,25.08
2019-04-19T15:59:15.324Z,25.10
2019-04-19T16:00:14.165Z,25.11
2019-04-19T16:01:14.412Z,24.86
2019-04-19T16:02:14.079Z,24.98
2019-04-19T16:03:14.086Z,24.96
2019-04-19T16:04:14.193Z,24.86
2019-04-19T16:05:14.096Z,24.66
2019-04-19T16:06:14.186Z,24.77
2019-04-19T16:07:14.355Z,24.61
2019-04-19T16:08:14.115Z,24.60
2019-04-19T16:09:15.099Z,24.68
2019-04-19T16:10:16.634Z,24.66
2019-04-19T16:11:14.131Z,24.54
2019-04-19T16:12:15.427Z,24.70
2019-04-19T16:13:14.141Z,24.66
2019-04-19T16:14:15.264Z,24.78
2019-04-19T16:15:14.153Z,24.78
2019-04-19T16:16:14.384Z,24.65
2019-04-19T16:17:15.635Z,24.69
2019-04-19T16:18:14.179Z,24.60
2019-04-19T16:19:14.368Z,24.54
2019-04-19T16:20:15.432Z,24.51
2019-04-19T16:21:23.568Z,24.57
2019-04-19T16:22:14.353Z,24.60
2019-04-19T16:23:14.268Z,24.54
2019-04-19T16:24:15.330Z,24.48
2019-04-19T16:25:14.952Z,24.38
2019-04-19T16:26:15.106Z,24.43
2019-04-19T16:27:15.295Z,24.39
2019-04-19T16:28:15.107Z,24.47
2019-04-19T16:29:24.378Z,24.45
2019-04-19T16:30:14.318Z,24.55
2019-04-19T16:31:14.684Z,24.55
2019-04-19T16:32:14.765Z,24.50
2019-04-19T16:33:15.567Z,24.61
2019-04-19T16:34:16.869Z,24.66
2019-04-19T16:35:14.264Z,24.69
2019-04-19T16:36:14.730Z,24.84
2019-04-19T16:37:14.804Z,24.74
2019-04-19T16:38:14.279Z,24.53
2019-04-19T16:39:14.962Z,24.38
2019-04-19T16:40:14.320Z,24.47
2019-04-19T16:41:14.848Z,24.39
2019-04-19T16:42:14.298Z,24.40
2019-04-19T16:43:15.342Z,24.42
2019-04-19T16:44:15.623Z,24.43
2019-04-19T16:45:14.316Z,24.35
2019-04-19T16:46:19.401Z,24.45
2019-04-19T16:47:15.271Z,24.53
2019-04-19T16:48:14.701Z,24.47
2019-04-19T16:49:14.335Z,24.48
2019-04-19T16:50:14.483Z,24.45
2019-04-19T16:51:14.685Z,24.29
2019-04-19T16:52:16.042Z,24.30
2019-04-19T16:53:15.492Z,24.29
2019-04-19T16:54:14.361Z,24.28
2019-04-19T16:55:15.662Z,24.40
2019-04-19T16:56:15.436Z,24.45
2019-04-19T16:57:19.861Z,24.40
2019-04-19T16:58:14.730Z,24.50
2019-04-19T16:59:14.387Z,24.47
2019-04-19T17:00:14.476Z,24.38
2019-04-19T17:01:14.645Z,24.36
2019-04-19T17:02:15.155Z,24.28
2019-04-19T17:03:14.419Z,24.32
2019-04-19T17:04:15.537Z,24.18
2019-04-19T17:05:14.862Z,24.11
2019-04-19T17:06:14.854Z,24.10
2019-04-19T17:07:14.534Z,24.03
2019-04-19T17:08:15.556Z,24.08
2019-04-19T17:09:15.148Z,24.03
2019-04-19T17:10:15.677Z,24.08
2019-04-19T17:11:15.414Z,23.99
2019-04-19T17:12:14.500Z,24.06
2019-04-19T17:13:14.970Z,24.03
2019-04-19T17:14:14.712Z,24.02
2019-04-19T17:15:14.953Z,24.01
2019-04-19T17:16:15.554Z,23.95
2019-04-19T17:17:15.129Z,23.83
2019-04-19T17:18:14.583Z,23.81
2019-04-19T17:19:14.934Z,23.77
2019-04-19T17:20:15.102Z,23.78
2019-04-19T17:21:15.505Z,23.77
2019-04-19T17:22:18.858Z,23.78
2019-04-19T17:23:14.736Z,23.80
2019-04-19T17:24:14.513Z,23.71
2019-04-19T17:25:14.902Z,23.69
2019-04-19T17:26:15.109Z,23.69
2019-04-19T17:27:14.529Z,23.63
2019-04-19T17:28:14.750Z,23.63
2019-04-19T17:29:14.931Z,23.66
2019-04-19T17:30:14.940Z,23.69
2019-04-19T17:31:14.547Z,23.66
2019-04-19T17:32:14.566Z,23.58
2019-04-19T17:33:14.676Z,23.68
2019-04-19T17:34:14.563Z,23.74
2019-04-19T17:35:14.566Z,23.71
2019-04-19T17:36:14.572Z,23.76
2019-04-19T17:37:15.954Z,23.63
2019-04-19T17:38:26.920Z,23.71
2019-04-19T17:39:14.851Z,23.62
2019-04-19T17:40:14.665Z,23.56
2019-04-19T17:41:14.605Z,23.58
2019-04-19T17:42:14.757Z,23.59
2019-04-19T17:43:14.605Z,23.58
2019-04-19T17:44:15.510Z,23.46
2019-04-19T17:45:15.602Z,23.48
2019-04-19T17:46:14.720Z,23.39
2019-04-19T17:47:17.009Z,23.40
2019-04-19T17:48:14.632Z,23.37
2019-04-19T17:49:14.837Z,23.34
2019-04-19T17:50:14.639Z,23.40
2019-04-19T17:51:15.693Z,23.37
2019-04-19T17:52:23.045Z,23.24
2019-04-19T17:53:14.979Z,23.31
2019-04-19T17:54:18.655Z,23.10
2019-04-19T17:55:25.091Z,23.06
2019-04-19T17:56:15.281Z,23.06
2019-04-19T17:57:15.403Z,22.99
2019-04-19T17:58:15.202Z,22.99
2019-04-19T17:59:16.852Z,22.98
2019-04-19T18:00:14.685Z,22.87
2019-04-19T18:01:15.884Z,22.80
2019-04-19T18:02:14.976Z,22.76
2019-04-19T18:03:15.235Z,22.65
2019-04-19T18:04:16.574Z,22.50
2019-04-19T18:05:15.890Z,22.43
2019-04-19T18:06:14.726Z,22.41
2019-04-19T18:07:15.353Z,22.35
2019-04-19T18:08:21.653Z,22.20
2019-04-19T18:09:17.663Z,22.11
2019-04-19T18:10:18.135Z,22.04
2019-04-19T18:11:20.950Z,21.93
2019-04-19T18:12:14.740Z,21.88
2019-04-19T18:13:15.127Z,21.77